sensor_id;sensor_type;location;lat;lon;timestamp;P1;durP1;ratioP1;P2;durP2;ratioP2
75584;SDS011;64162;53.508;10.476;2022-11-15T00:01:00;115.40;;;30.52;;
75584;SDS011;64162;53.508;10.476;2022-11-15T00:03:45;78.55;;;28.60;;
75584;SDS011;64162;53.508;10.476;2022-11-15T00:06:30;66.55;;;23.33;;
75584;SDS011;64162;53.508;10.476;2022-11-15T00:09:15;87.10;;;22.77;;
75584;SDS011;64162;53.508;10.476;2022-11-15T00:12:00;92.53;;;25.23;;
75584;SDS011;64162;53.508;10.476;2022-11-15T00:14:45;70.10;;;23.50;;
75584;SDS011;64162;53.508;10.476;2022-11-15T00:17:30;92.57;;;27.05;;
75584;SDS011;64162;53.508;10.476;2022-11-15T00:20:16;81.25;;;26.80;;
75584;SDS011;64162;53.508;10.476;2022-11-15T00:23:05;75.60;;;23.33;;
75584;SDS011;64162;53.508;10.476;2022-11-15T00:25:57;91.13;;;27.15;;
75584;SDS011;64162;53.508;10.476;2022-11-15T00:31:28;76.72;;;20.52;;
75584;SDS011;64162;53.508;10.476;2022-11-15T00:34:12;98.95;;;30.30;;
75584;SDS011;64162;53.508;10.476;2022-11-15T00:36:58;88.07;;;26.33;;
75584;SDS011;64162;53.508;10.476;2022-11-15T00:39:43;101.80;;;28.50;;
75584;SDS011;64162;53.508;10.476;2022-11-15T00:42:28;96.05;;;25.92;;
75584;SDS011;64162;53.508;10.476;2022-11-15T00:45:12;111.75;;;28.50;;
75584;SDS011;64162;53.508;10.476;2022-11-15T00:47:57;125.20;;;34.55;;
75584;SDS011;64162;53.508;10.476;2022-11-15T00:50:42;128.23;;;31.80;;
75584;SDS011;64162;53.508;10.476;2022-11-15T00:53:27;85.53;;;24.70;;
75584;SDS011;64162;53.508;10.476;2022-11-15T00:56:13;92.18;;;30.58;;
75584;SDS011;64162;53.508;10.476;2022-11-15T00:58:58;98.88;;;27.77;;
75584;SDS011;64162;53.508;10.476;2022-11-15T01:01:43;96.22;;;28.08;;
75584;SDS011;64162;53.508;10.476;2022-11-15T01:04:28;95.70;;;28.25;;
75584;SDS011;64162;53.508;10.476;2022-11-15T01:07:13;96.82;;;26.67;;
75584;SDS011;64162;53.508;10.476;2022-11-15T01:09:58;81.85;;;22.40;;
75584;SDS011;64162;53.508;10.476;2022-11-15T01:12:43;96.07;;;27.40;;
75584;SDS011;64162;53.508;10.476;2022-11-15T01:15:28;78.57;;;25.02;;
75584;SDS011;64162;53.508;10.476;2022-11-15T01:18:13;70.03;;;20.55;;
75584;SDS011;64162;53.508;10.476;2022-11-15T01:20:57;93.63;;;26.42;;
75584;SDS011;64162;53.508;10.476;2022-11-15T01:23:43;89.53;;;23.52;;
75584;SDS011;64162;53.508;10.476;2022-11-15T01:26:29;103.05;;;27.10;;
75584;SDS011;64162;53.508;10.476;2022-11-15T01:29:13;90.93;;;24.10;;
75584;SDS011;64162;53.508;10.476;2022-11-15T01:31:58;105.25;;;27.60;;
75584;SDS011;64162;53.508;10.476;2022-11-15T01:34:43;108.82;;;27.60;;
75584;SDS011;64162;53.508;10.476;2022-11-15T01:37:28;97.75;;;25.90;;
75584;SDS011;64162;53.508;10.476;2022-11-15T01:40:13;96.78;;;29.40;;
75584;SDS011;64162;53.508;10.476;2022-11-15T01:43:17;93.60;;;27.40;;
75584;SDS011;64162;53.508;10.476;2022-11-15T01:46:06;96.32;;;23.85;;
75584;SDS011;64162;53.508;10.476;2022-11-15T01:49:15;92.13;;;24.02;;
75584;SDS011;64162;53.508;10.476;2022-11-15T01:52:03;91.30;;;24.00;;
75584;SDS011;64162;53.508;10.476;2022-11-15T01:57:59;100.40;;;25.60;;
75584;SDS011;64162;53.508;10.476;2022-11-15T02:00:48;92.82;;;24.50;;
75584;SDS011;64162;53.508;10.476;2022-11-15T02:03:40;99.93;;;25.35;;
75584;SDS011;64162;53.508;10.476;2022-11-15T02:06:36;91.05;;;24.15;;
75584;SDS011;64162;53.508;10.476;2022-11-15T02:12:07;76.72;;;20.70;;
75584;SDS011;64162;53.508;10.476;2022-11-15T02:14:55;92.60;;;22.05;;
75584;SDS011;64162;53.508;10.476;2022-11-15T02:20:40;94.05;;;24.27;;
75584;SDS011;64162;53.508;10.476;2022-11-15T02:26:59;82.10;;;22.42;;
75584;SDS011;64162;53.508;10.476;2022-11-15T02:33:02;91.55;;;23.02;;
75584;SDS011;64162;53.508;10.476;2022-11-15T02:36:02;86.25;;;23.83;;
75584;SDS011;64162;53.508;10.476;2022-11-15T02:38:54;86.65;;;18.45;;
75584;SDS011;64162;53.508;10.476;2022-11-15T02:42:04;79.95;;;19.13;;
75584;SDS011;64162;53.508;10.476;2022-11-15T02:45:19;83.80;;;22.33;;
75584;SDS011;64162;53.508;10.476;2022-11-15T02:48:08;81.75;;;23.27;;
75584;SDS011;64162;53.508;10.476;2022-11-15T02:50:54;97.35;;;21.92;;
75584;SDS011;64162;53.508;10.476;2022-11-15T02:53:40;97.13;;;25.27;;
75584;SDS011;64162;53.508;10.476;2022-11-15T02:56:25;94.40;;;25.63;;
75584;SDS011;64162;53.508;10.476;2022-11-15T02:59:34;94.82;;;26.17;;
75584;SDS011;64162;53.508;10.476;2022-11-15T03:02:52;88.50;;;26.23;;
75584;SDS011;64162;53.508;10.476;2022-11-15T03:05:54;86.85;;;23.35;;
75584;SDS011;64162;53.508;10.476;2022-11-15T03:11:35;97.78;;;25.55;;
75584;SDS011;64162;53.508;10.476;2022-11-15T03:14:29;90.15;;;26.52;;
75584;SDS011;64162;53.508;10.476;2022-11-15T03:17:22;95.32;;;25.88;;
75584;SDS011;64162;53.508;10.476;2022-11-15T03:20:13;105.43;;;24.02;;
75584;SDS011;64162;53.508;10.476;2022-11-15T03:23:09;98.43;;;27.40;;
75584;SDS011;64162;53.508;10.476;2022-11-15T03:25:55;95.40;;;22.27;;
75584;SDS011;64162;53.508;10.476;2022-11-15T03:31:39;96.32;;;26.63;;
75584;SDS011;64162;53.508;10.476;2022-11-15T03:34:41;94.80;;;24.98;;
75584;SDS011;64162;53.508;10.476;2022-11-15T03:40:53;80.13;;;22.70;;
75584;SDS011;64162;53.508;10.476;2022-11-15T03:43:47;89.40;;;23.38;;
75584;SDS011;64162;53.508;10.476;2022-11-15T03:46:38;75.57;;;20.40;;
75584;SDS011;64162;53.508;10.476;2022-11-15T03:49:28;86.43;;;25.35;;
75584;SDS011;64162;53.508;10.476;2022-11-15T03:52:19;81.00;;;24.85;;
75584;SDS011;64162;53.508;10.476;2022-11-15T03:55:07;88.22;;;22.67;;
75584;SDS011;64162;53.508;10.476;2022-11-15T03:57:57;98.25;;;24.30;;
75584;SDS011;64162;53.508;10.476;2022-11-15T04:00:45;92.38;;;23.65;;
75584;SDS011;64162;53.508;10.476;2022-11-15T04:03:29;64.43;;;20.65;;
75584;SDS011;64162;53.508;10.476;2022-11-15T04:06:15;90.47;;;25.50;;
75584;SDS011;64162;53.508;10.476;2022-11-15T04:09:00;91.10;;;23.25;;
75584;SDS011;64162;53.508;10.476;2022-11-15T04:11:45;94.53;;;24.65;;
75584;SDS011;64162;53.508;10.476;2022-11-15T04:14:30;102.70;;;26.60;;
75584;SDS011;64162;53.508;10.476;2022-11-15T04:17:15;79.95;;;22.50;;
75584;SDS011;64162;53.508;10.476;2022-11-15T04:20:00;98.13;;;24.98;;
75584;SDS011;64162;53.508;10.476;2022-11-15T04:23:05;90.57;;;21.33;;
75584;SDS011;64162;53.508;10.476;2022-11-15T04:26:11;73.82;;;21.90;;
75584;SDS011;64162;53.508;10.476;2022-11-15T04:28:59;74.32;;;21.63;;
75584;SDS011;64162;53.508;10.476;2022-11-15T04:32:04;70.57;;;22.55;;
75584;SDS011;64162;53.508;10.476;2022-11-15T04:34:51;72.05;;;21.20;;
75584;SDS011;64162;53.508;10.476;2022-11-15T04:37:35;90.82;;;24.70;;
75584;SDS011;64162;53.508;10.476;2022-11-15T04:40:21;78.70;;;22.08;;
75584;SDS011;64162;53.508;10.476;2022-11-15T04:43:06;98.10;;;25.95;;
75584;SDS011;64162;53.508;10.476;2022-11-15T04:45:51;74.43;;;19.45;;
75584;SDS011;64162;53.508;10.476;2022-11-15T04:48:36;104.40;;;27.35;;
75584;SDS011;64162;53.508;10.476;2022-11-15T04:51:21;103.80;;;27.35;;
75584;SDS011;64162;53.508;10.476;2022-11-15T04:54:06;120.50;;;30.90;;
75584;SDS011;64162;53.508;10.476;2022-11-15T04:56:51;89.47;;;23.27;;
75584;SDS011;64162;53.508;10.476;2022-11-15T04:59:36;113.72;;;27.50;;
75584;SDS011;64162;53.508;10.476;2022-11-15T05:02:21;128.43;;;29.67;;
75584;SDS011;64162;53.508;10.476;2022-11-15T05:05:06;134.32;;;27.50;;
75584;SDS011;64162;53.508;10.476;2022-11-15T05:07:51;140.27;;;35.28;;
75584;SDS011;64162;53.508;10.476;2022-11-15T05:10:36;137.52;;;32.53;;
75584;SDS011;64162;53.508;10.476;2022-11-15T05:13:21;125.75;;;27.50;;
75584;SDS011;64162;53.508;10.476;2022-11-15T05:16:06;124.68;;;27.63;;
75584;SDS011;64162;53.508;10.476;2022-11-15T05:18:52;119.88;;;28.73;;
75584;SDS011;64162;53.508;10.476;2022-11-15T05:21:38;107.78;;;30.30;;
75584;SDS011;64162;53.508;10.476;2022-11-15T05:24:23;140.55;;;31.33;;
75584;SDS011;64162;53.508;10.476;2022-11-15T05:27:08;126.00;;;28.63;;
75584;SDS011;64162;53.508;10.476;2022-11-15T05:29:54;131.57;;;29.98;;
75584;SDS011;64162;53.508;10.476;2022-11-15T05:32:40;135.52;;;28.63;;
75584;SDS011;64162;53.508;10.476;2022-11-15T05:35:29;117.88;;;25.73;;
75584;SDS011;64162;53.508;10.476;2022-11-15T05:38:19;122.70;;;24.45;;
75584;SDS011;64162;53.508;10.476;2022-11-15T05:41:04;107.75;;;26.38;;
75584;SDS011;64162;53.508;10.476;2022-11-15T05:43:50;102.72;;;28.90;;
75584;SDS011;64162;53.508;10.476;2022-11-15T05:46:36;99.18;;;22.55;;
75584;SDS011;64162;53.508;10.476;2022-11-15T05:49:25;59.28;;;17.40;;
75584;SDS011;64162;53.508;10.476;2022-11-15T05:52:16;92.97;;;23.95;;
75584;SDS011;64162;53.508;10.476;2022-11-15T05:55:04;98.65;;;24.95;;
75584;SDS011;64162;53.508;10.476;2022-11-15T05:57:52;80.50;;;21.98;;
75584;SDS011;64162;53.508;10.476;2022-11-15T06:00:37;75.45;;;22.85;;
75584;SDS011;64162;53.508;10.476;2022-11-15T06:03:23;62.67;;;18.63;;
75584;SDS011;64162;53.508;10.476;2022-11-15T06:06:07;67.80;;;17.13;;
75584;SDS011;64162;53.508;10.476;2022-11-15T06:08:55;58.33;;;19.65;;
75584;SDS011;64162;53.508;10.476;2022-11-15T06:11:40;80.90;;;23.83;;
75584;SDS011;64162;53.508;10.476;2022-11-15T06:14:25;88.85;;;21.17;;
75584;SDS011;64162;53.508;10.476;2022-11-15T06:17:10;93.88;;;24.67;;
75584;SDS011;64162;53.508;10.476;2022-11-15T06:19:56;82.32;;;23.38;;
75584;SDS011;64162;53.508;10.476;2022-11-15T06:22:41;89.38;;;23.10;;
75584;SDS011;64162;53.508;10.476;2022-11-15T06:25:26;89.38;;;21.85;;
75584;SDS011;64162;53.508;10.476;2022-11-15T06:28:12;81.57;;;24.80;;
75584;SDS011;64162;53.508;10.476;2022-11-15T06:31:04;81.28;;;23.13;;
75584;SDS011;64162;53.508;10.476;2022-11-15T06:33:53;81.10;;;25.10;;
75584;SDS011;64162;53.508;10.476;2022-11-15T06:36:38;53.67;;;13.32;;
75584;SDS011;64162;53.508;10.476;2022-11-15T06:39:23;93.82;;;24.05;;
75584;SDS011;64162;53.508;10.476;2022-11-15T06:42:08;110.45;;;27.90;;
75584;SDS011;64162;53.508;10.476;2022-11-15T06:44:53;112.38;;;29.10;;
75584;SDS011;64162;53.508;10.476;2022-11-15T06:47:47;107.93;;;27.23;;
75584;SDS011;64162;53.508;10.476;2022-11-15T06:50:32;114.00;;;27.25;;
75584;SDS011;64162;53.508;10.476;2022-11-15T06:53:17;116.88;;;26.95;;
75584;SDS011;64162;53.508;10.476;2022-11-15T06:56:03;109.72;;;26.05;;
75584;SDS011;64162;53.508;10.476;2022-11-15T06:58:50;126.18;;;28.42;;
75584;SDS011;64162;53.508;10.476;2022-11-15T07:01:35;108.70;;;28.95;;
75584;SDS011;64162;53.508;10.476;2022-11-15T07:04:20;134.02;;;28.17;;
75584;SDS011;64162;53.508;10.476;2022-11-15T07:07:05;120.03;;;30.33;;
75584;SDS011;64162;53.508;10.476;2022-11-15T07:09:50;123.25;;;29.15;;
75584;SDS011;64162;53.508;10.476;2022-11-15T07:12:35;129.68;;;29.15;;
75584;SDS011;64162;53.508;10.476;2022-11-15T07:15:20;107.30;;;26.55;;
75584;SDS011;64162;53.508;10.476;2022-11-15T07:18:07;110.50;;;28.20;;
75584;SDS011;64162;53.508;10.476;2022-11-15T07:20:52;110.88;;;27.38;;
75584;SDS011;64162;53.508;10.476;2022-11-15T07:23:38;116.47;;;27.45;;
75584;SDS011;64162;53.508;10.476;2022-11-15T07:26:24;115.63;;;24.48;;
75584;SDS011;64162;53.508;10.476;2022-11-15T07:29:09;103.78;;;28.92;;
75584;SDS011;64162;53.508;10.476;2022-11-15T07:31:54;125.30;;;26.63;;
75584;SDS011;64162;53.508;10.476;2022-11-15T07:34:39;110.28;;;25.67;;
75584;SDS011;64162;53.508;10.476;2022-11-15T07:37:24;99.80;;;23.63;;
75584;SDS011;64162;53.508;10.476;2022-11-15T07:40:09;110.28;;;28.08;;
75584;SDS011;64162;53.508;10.476;2022-11-15T07:43:01;100.05;;;24.10;;
75584;SDS011;64162;53.508;10.476;2022-11-15T07:45:48;104.10;;;30.40;;
75584;SDS011;64162;53.508;10.476;2022-11-15T07:48:35;111.93;;;25.98;;
75584;SDS011;64162;53.508;10.476;2022-11-15T07:51:27;98.78;;;25.50;;
75584;SDS011;64162;53.508;10.476;2022-11-15T07:54:11;102.63;;;25.95;;
75584;SDS011;64162;53.508;10.476;2022-11-15T07:56:57;99.00;;;26.80;;
75584;SDS011;64162;53.508;10.476;2022-11-15T07:59:45;90.63;;;23.33;;
75584;SDS011;64162;53.508;10.476;2022-11-15T08:02:30;112.40;;;26.75;;
75584;SDS011;64162;53.508;10.476;2022-11-15T08:05:15;93.63;;;23.90;;
75584;SDS011;64162;53.508;10.476;2022-11-15T08:08:01;88.30;;;25.90;;
75584;SDS011;64162;53.508;10.476;2022-11-15T08:10:46;81.38;;;24.92;;
75584;SDS011;64162;53.508;10.476;2022-11-15T08:13:31;74.35;;;24.65;;
75584;SDS011;64162;53.508;10.476;2022-11-15T08:16:16;64.72;;;23.35;;
75584;SDS011;64162;53.508;10.476;2022-11-15T08:19:01;79.57;;;23.73;;
75584;SDS011;64162;53.508;10.476;2022-11-15T08:21:46;67.00;;;24.38;;
75584;SDS011;64162;53.508;10.476;2022-11-15T08:24:31;58.25;;;20.75;;
75584;SDS011;64162;53.508;10.476;2022-11-15T08:27:16;71.70;;;23.00;;
75584;SDS011;64162;53.508;10.476;2022-11-15T08:30:01;58.55;;;20.05;;
75584;SDS011;64162;53.508;10.476;2022-11-15T08:32:46;64.07;;;23.13;;
75584;SDS011;64162;53.508;10.476;2022-11-15T08:35:32;59.95;;;21.50;;
75584;SDS011;64162;53.508;10.476;2022-11-15T08:38:17;50.03;;;20.10;;
75584;SDS011;64162;53.508;10.476;2022-11-15T08:41:04;54.80;;;21.92;;
75584;SDS011;64162;53.508;10.476;2022-11-15T08:43:52;54.38;;;21.02;;
75584;SDS011;64162;53.508;10.476;2022-11-15T08:46:38;54.20;;;16.00;;
75584;SDS011;64162;53.508;10.476;2022-11-15T08:49:23;51.85;;;20.85;;
75584;SDS011;64162;53.508;10.476;2022-11-15T08:52:08;40.33;;;16.13;;
75584;SDS011;64162;53.508;10.476;2022-11-15T08:54:53;50.75;;;20.02;;
75584;SDS011;64162;53.508;10.476;2022-11-15T08:57:38;43.05;;;18.65;;
75584;SDS011;64162;53.508;10.476;2022-11-15T09:00:23;43.08;;;18.38;;
75584;SDS011;64162;53.508;10.476;2022-11-15T09:03:09;46.20;;;17.88;;
75584;SDS011;64162;53.508;10.476;2022-11-15T09:05:57;45.88;;;19.23;;
75584;SDS011;64162;53.508;10.476;2022-11-15T09:08:44;40.58;;;19.23;;
75584;SDS011;64162;53.508;10.476;2022-11-15T09:11:31;36.67;;;16.75;;
75584;SDS011;64162;53.508;10.476;2022-11-15T09:14:16;38.10;;;18.48;;
75584;SDS011;64162;53.508;10.476;2022-11-15T09:17:01;30.38;;;14.50;;
75584;SDS011;64162;53.508;10.476;2022-11-15T09:19:46;25.17;;;14.32;;
75584;SDS011;64162;53.508;10.476;2022-11-15T09:22:31;24.17;;;11.30;;
75584;SDS011;64162;53.508;10.476;2022-11-15T09:25:16;27.25;;;15.30;;
75584;SDS011;64162;53.508;10.476;2022-11-15T09:28:05;24.38;;;13.05;;
75584;SDS011;64162;53.508;10.476;2022-11-15T09:30:50;26.75;;;14.27;;
75584;SDS011;64162;53.508;10.476;2022-11-15T09:33:36;23.55;;;14.07;;
75584;SDS011;64162;53.508;10.476;2022-11-15T09:36:21;22.33;;;9.98;;
75584;SDS011;64162;53.508;10.476;2022-11-15T09:39:06;21.27;;;9.35;;
75584;SDS011;64162;53.508;10.476;2022-11-15T09:50:54;17.45;;;12.63;;
75584;SDS011;64162;53.508;10.476;2022-11-15T09:53:29;17.27;;;11.35;;
75584;SDS011;64162;53.508;10.476;2022-11-15T09:56:26;15.90;;;11.38;;
75584;SDS011;64162;53.508;10.476;2022-11-15T10:04:50;19.45;;;12.88;;
75584;SDS011;64162;53.508;10.476;2022-11-15T10:10:02;21.00;;;12.60;;
75584;SDS011;64162;53.508;10.476;2022-11-15T10:12:37;18.08;;;10.95;;
75584;SDS011;64162;53.508;10.476;2022-11-15T10:15:09;16.40;;;11.27;;
75584;SDS011;64162;53.508;10.476;2022-11-15T10:18:00;14.68;;;10.13;;
75584;SDS011;64162;53.508;10.476;2022-11-15T10:20:44;16.75;;;10.93;;
75584;SDS011;64162;53.508;10.476;2022-11-15T10:23:15;16.38;;;11.70;;
75584;SDS011;64162;53.508;10.476;2022-11-15T10:25:44;17.02;;;10.90;;
75584;SDS011;64162;53.508;10.476;2022-11-15T10:31:21;14.88;;;10.75;;
75584;SDS011;64162;53.508;10.476;2022-11-15T10:33:49;15.93;;;10.52;;
75584;SDS011;64162;53.508;10.476;2022-11-15T10:36:17;13.60;;;5.70;;
75584;SDS011;64162;53.508;10.476;2022-11-15T10:41:16;16.65;;;10.15;;
75584;SDS011;64162;53.508;10.476;2022-11-15T10:43:45;16.95;;;11.77;;
75584;SDS011;64162;53.508;10.476;2022-11-15T10:46:26;19.15;;;9.90;;
75584;SDS011;64162;53.508;10.476;2022-11-15T10:49:26;15.32;;;10.07;;
75584;SDS011;64162;53.508;10.476;2022-11-15T10:55:05;14.13;;;11.27;;
75584;SDS011;64162;53.508;10.476;2022-11-15T10:57:38;12.68;;;9.52;;
75584;SDS011;64162;53.508;10.476;2022-11-15T11:00:07;12.48;;;10.05;;
75584;SDS011;64162;53.508;10.476;2022-11-15T11:02:56;13.50;;;8.93;;
75584;SDS011;64162;53.508;10.476;2022-11-15T11:10:52;13.40;;;9.80;;
75584;SDS011;64162;53.508;10.476;2022-11-15T11:13:28;14.85;;;11.13;;
75584;SDS011;64162;53.508;10.476;2022-11-15T11:18:59;12.43;;;8.45;;
75584;SDS011;64162;53.508;10.476;2022-11-15T11:22:20;9.73;;;5.25;;
75584;SDS011;64162;53.508;10.476;2022-11-15T11:24:45;11.85;;;5.32;;
75584;SDS011;64162;53.508;10.476;2022-11-15T11:30:12;13.70;;;9.38;;
75584;SDS011;64162;53.508;10.476;2022-11-15T11:36:08;14.25;;;10.40;;
75584;SDS011;64162;53.508;10.476;2022-11-15T11:38:37;14.23;;;10.60;;
75584;SDS011;64162;53.508;10.476;2022-11-15T11:49:15;12.00;;;9.40;;
75584;SDS011;64162;53.508;10.476;2022-11-15T11:51:51;12.35;;;8.60;;
75584;SDS011;64162;53.508;10.476;2022-11-15T11:56:59;11.77;;;9.35;;
75584;SDS011;64162;53.508;10.476;2022-11-15T12:02:16;12.02;;;8.32;;
75584;SDS011;64162;53.508;10.476;2022-11-15T12:04:48;12.68;;;10.20;;
75584;SDS011;64162;53.508;10.476;2022-11-15T12:07:22;10.48;;;8.93;;
75584;SDS011;64162;53.508;10.476;2022-11-15T12:09:58;12.02;;;7.82;;
75584;SDS011;64162;53.508;10.476;2022-11-15T12:12:53;9.90;;;8.90;;
75584;SDS011;64162;53.508;10.476;2022-11-15T12:15:26;12.95;;;9.57;;
75584;SDS011;64162;53.508;10.476;2022-11-15T12:17:59;11.77;;;9.32;;
75584;SDS011;64162;53.508;10.476;2022-11-15T12:20:27;10.38;;;9.07;;
75584;SDS011;64162;53.508;10.476;2022-11-15T12:23:00;12.75;;;9.18;;
75584;SDS011;64162;53.508;10.476;2022-11-15T12:28:31;11.85;;;9.10;;
75584;SDS011;64162;53.508;10.476;2022-11-15T12:31:35;9.88;;;8.35;;
75584;SDS011;64162;53.508;10.476;2022-11-15T12:34:13;11.68;;;8.32;;
75584;SDS011;64162;53.508;10.476;2022-11-15T12:37:01;11.95;;;8.75;;
75584;SDS011;64162;53.508;10.476;2022-11-15T12:42:40;12.02;;;10.10;;
75584;SDS011;64162;53.508;10.476;2022-11-15T12:45:28;12.98;;;9.02;;
75584;SDS011;64162;53.508;10.476;2022-11-15T12:50:54;10.38;;;7.80;;
75584;SDS011;64162;53.508;10.476;2022-11-15T12:58:40;11.18;;;8.80;;
75584;SDS011;64162;53.508;10.476;2022-11-15T13:22:39;8.57;;;6.53;;
75584;SDS011;64162;53.508;10.476;2022-11-15T13:28:02;10.32;;;8.43;;
75584;SDS011;64162;53.508;10.476;2022-11-15T13:30:35;10.02;;;7.97;;
75584;SDS011;64162;53.508;10.476;2022-11-15T13:33:22;10.00;;;7.60;;
75584;SDS011;64162;53.508;10.476;2022-11-15T13:35:53;10.98;;;9.45;;
75584;SDS011;64162;53.508;10.476;2022-11-15T13:41:19;10.20;;;7.30;;
75584;SDS011;64162;53.508;10.476;2022-11-15T13:43:48;11.48;;;8.18;;
75584;SDS011;64162;53.508;10.476;2022-11-15T13:51:43;11.43;;;7.32;;
75584;SDS011;64162;53.508;10.476;2022-11-15T13:56:52;14.55;;;9.25;;
75584;SDS011;64162;53.508;10.476;2022-11-15T13:59:26;15.23;;;7.65;;
75584;SDS011;64162;53.508;10.476;2022-11-15T14:01:58;15.55;;;10.57;;
75584;SDS011;64162;53.508;10.476;2022-11-15T14:04:38;15.10;;;9.35;;
75584;SDS011;64162;53.508;10.476;2022-11-15T14:07:17;13.15;;;8.15;;
75584;SDS011;64162;53.508;10.476;2022-11-15T14:09:46;9.93;;;7.70;;
75584;SDS011;64162;53.508;10.476;2022-11-15T14:12:32;10.98;;;9.07;;
75584;SDS011;64162;53.508;10.476;2022-11-15T14:15:18;11.45;;;9.63;;
75584;SDS011;64162;53.508;10.476;2022-11-15T14:17:57;11.50;;;8.32;;
75584;SDS011;64162;53.508;10.476;2022-11-15T14:20:37;13.32;;;7.65;;
75584;SDS011;64162;53.508;10.476;2022-11-15T14:23:18;9.27;;;7.07;;
75584;SDS011;64162;53.508;10.476;2022-11-15T14:25:56;8.60;;;7.72;;
75584;SDS011;64162;53.508;10.476;2022-11-15T14:30:51;8.52;;;4.43;;
75584;SDS011;64162;53.508;10.476;2022-11-15T14:35:51;10.43;;;6.88;;
75584;SDS011;64162;53.508;10.476;2022-11-15T14:38:18;12.00;;;6.65;;
75584;SDS011;64162;53.508;10.476;2022-11-15T14:40:45;12.45;;;8.35;;
75584;SDS011;64162;53.508;10.476;2022-11-15T14:43:12;12.15;;;8.25;;
75584;SDS011;64162;53.508;10.476;2022-11-15T14:45:38;12.00;;;8.00;;
75584;SDS011;64162;53.508;10.476;2022-11-15T14:48:05;12.93;;;7.60;;
75584;SDS011;64162;53.508;10.476;2022-11-15T14:50:32;9.95;;;8.15;;
75584;SDS011;64162;53.508;10.476;2022-11-15T14:53:00;14.40;;;8.45;;
75584;SDS011;64162;53.508;10.476;2022-11-15T14:55:28;12.13;;;8.60;;
75584;SDS011;64162;53.508;10.476;2022-11-15T14:58:02;11.38;;;9.27;;
75584;SDS011;64162;53.508;10.476;2022-11-15T15:00:31;11.85;;;8.77;;
75584;SDS011;64162;53.508;10.476;2022-11-15T15:03:00;15.05;;;11.68;;
75584;SDS011;64162;53.508;10.476;2022-11-15T15:05:40;16.58;;;9.63;;
75584;SDS011;64162;53.508;10.476;2022-11-15T15:08:08;14.75;;;9.75;;
75584;SDS011;64162;53.508;10.476;2022-11-15T15:10:37;11.90;;;9.98;;
75584;SDS011;64162;53.508;10.476;2022-11-15T15:13:09;14.85;;;9.85;;
75584;SDS011;64162;53.508;10.476;2022-11-15T15:15:41;14.02;;;9.77;;
75584;SDS011;64162;53.508;10.476;2022-11-15T15:18:08;18.52;;;11.50;;
75584;SDS011;64162;53.508;10.476;2022-11-15T15:20:35;26.30;;;14.68;;
75584;SDS011;64162;53.508;10.476;2022-11-15T15:23:04;23.05;;;13.50;;
75584;SDS011;64162;53.508;10.476;2022-11-15T15:25:34;16.95;;;10.43;;
75584;SDS011;64162;53.508;10.476;2022-11-15T15:28:01;17.63;;;10.40;;
75584;SDS011;64162;53.508;10.476;2022-11-15T15:30:29;16.38;;;10.48;;
75584;SDS011;64162;53.508;10.476;2022-11-15T15:32:56;15.98;;;10.52;;
75584;SDS011;64162;53.508;10.476;2022-11-15T15:35:22;12.85;;;9.50;;
75584;SDS011;64162;53.508;10.476;2022-11-15T15:37:52;14.60;;;9.40;;
75584;SDS011;64162;53.508;10.476;2022-11-15T15:40:20;17.52;;;9.98;;
75584;SDS011;64162;53.508;10.476;2022-11-15T15:42:48;12.55;;;8.02;;
75584;SDS011;64162;53.508;10.476;2022-11-15T15:45:15;12.80;;;9.55;;
75584;SDS011;64162;53.508;10.476;2022-11-15T15:47:43;16.60;;;9.00;;
75584;SDS011;64162;53.508;10.476;2022-11-15T15:50:19;13.60;;;8.95;;
75584;SDS011;64162;53.508;10.476;2022-11-15T15:52:49;11.43;;;8.50;;
75584;SDS011;64162;53.508;10.476;2022-11-15T15:55:16;15.65;;;10.10;;
75584;SDS011;64162;53.508;10.476;2022-11-15T15:57:42;11.90;;;7.60;;
75584;SDS011;64162;53.508;10.476;2022-11-15T16:00:09;11.90;;;9.80;;
75584;SDS011;64162;53.508;10.476;2022-11-15T16:02:39;12.80;;;8.05;;
75584;SDS011;64162;53.508;10.476;2022-11-15T16:05:06;11.73;;;8.63;;
75584;SDS011;64162;53.508;10.476;2022-11-15T16:07:34;11.32;;;7.45;;
75584;SDS011;64162;53.508;10.476;2022-11-15T16:10:02;14.35;;;9.57;;
75584;SDS011;64162;53.508;10.476;2022-11-15T16:12:47;11.77;;;7.15;;
75584;SDS011;64162;53.508;10.476;2022-11-15T16:15:14;11.40;;;8.32;;
75584;SDS011;64162;53.508;10.476;2022-11-15T16:17:43;12.88;;;9.38;;
75584;SDS011;64162;53.508;10.476;2022-11-15T16:20:19;9.20;;;4.38;;
75584;SDS011;64162;53.508;10.476;2022-11-15T16:23:06;9.25;;;7.15;;
75584;SDS011;64162;53.508;10.476;2022-11-15T16:25:48;12.13;;;8.27;;
75584;SDS011;64162;53.508;10.476;2022-11-15T16:28:20;9.95;;;8.07;;
75584;SDS011;64162;53.508;10.476;2022-11-15T16:30:49;19.67;;;9.00;;
75584;SDS011;64162;53.508;10.476;2022-11-15T16:33:29;10.68;;;7.78;;
75584;SDS011;64162;53.508;10.476;2022-11-15T16:35:55;14.63;;;9.32;;
75584;SDS011;64162;53.508;10.476;2022-11-15T16:38:22;14.48;;;9.80;;
75584;SDS011;64162;53.508;10.476;2022-11-15T16:40:48;13.35;;;9.45;;
75584;SDS011;64162;53.508;10.476;2022-11-15T16:43:15;11.60;;;10.40;;
75584;SDS011;64162;53.508;10.476;2022-11-15T16:45:42;15.00;;;9.95;;
75584;SDS011;64162;53.508;10.476;2022-11-15T16:48:19;12.32;;;8.93;;
75584;SDS011;64162;53.508;10.476;2022-11-15T16:50:49;12.43;;;9.05;;
75584;SDS011;64162;53.508;10.476;2022-11-15T16:53:16;11.38;;;8.73;;
75584;SDS011;64162;53.508;10.476;2022-11-15T16:55:42;12.35;;;9.00;;
75584;SDS011;64162;53.508;10.476;2022-11-15T16:58:09;13.25;;;9.27;;
75584;SDS011;64162;53.508;10.476;2022-11-15T17:00:35;13.18;;;9.70;;
75584;SDS011;64162;53.508;10.476;2022-11-15T17:03:02;11.07;;;9.60;;
75584;SDS011;64162;53.508;10.476;2022-11-15T17:05:29;9.38;;;8.38;;
75584;SDS011;64162;53.508;10.476;2022-11-15T17:07:55;12.75;;;7.88;;
75584;SDS011;64162;53.508;10.476;2022-11-15T17:10:22;13.60;;;7.90;;
75584;SDS011;64162;53.508;10.476;2022-11-15T17:12:50;11.40;;;7.93;;
75584;SDS011;64162;53.508;10.476;2022-11-15T17:15:18;13.45;;;7.82;;
75584;SDS011;64162;53.508;10.476;2022-11-15T17:17:49;12.10;;;7.82;;
75584;SDS011;64162;53.508;10.476;2022-11-15T17:20:17;9.88;;;7.28;;
75584;SDS011;64162;53.508;10.476;2022-11-15T17:22:44;12.82;;;8.90;;
75584;SDS011;64162;53.508;10.476;2022-11-15T17:25:12;12.05;;;8.23;;
75584;SDS011;64162;53.508;10.476;2022-11-15T17:27:39;11.57;;;8.25;;
75584;SDS011;64162;53.508;10.476;2022-11-15T17:30:06;11.63;;;7.38;;
75584;SDS011;64162;53.508;10.476;2022-11-15T17:32:36;11.02;;;8.55;;
75584;SDS011;64162;53.508;10.476;2022-11-15T17:35:04;14.30;;;9.40;;
75584;SDS011;64162;53.508;10.476;2022-11-15T17:37:37;9.80;;;6.60;;
75584;SDS011;64162;53.508;10.476;2022-11-15T17:40:03;12.63;;;7.82;;
75584;SDS011;64162;53.508;10.476;2022-11-15T17:42:30;12.75;;;9.38;;
75584;SDS011;64162;53.508;10.476;2022-11-15T17:44:57;12.73;;;7.10;;
75584;SDS011;64162;53.508;10.476;2022-11-15T17:47:24;11.45;;;8.55;;